Terminal Aerodrome Forecast
Issued by NWS Wichita, KS

Home | Current Version | Previous Version | Text Only | Print | Product List | Glossary Off
Versions: 1 2 3 4 5 6 7 8 9 10 11 12

000
FTUS43 KICT 262332
TAFICT
TAF
KICT 262332Z 2700/2724 15008KT P6SM SKC
     FM271000 17010KT P6SM SKC
     FM271600 17016G22KT P6SM SCT040
     FM271900 18020G26KT P6SM SCT040=

USA.gov is the U.S. government's official web portal to all federal, state and local government web resources and services.